Time;durP1;ratioP1;P1;durP2;ratioP2;P2;SDS_P1;SDS_P2;PMS_P1;PMS_P2;Temp;Humidity;BMP_temperature;BMP_pressure;BME280_temperature;BME280_humidity;BME280_pressure;Samples;Min_cycle;Max_cycle;Signal;HPM_P1;HPM_P2
2022/02/12 00:00:13;;;;;;;20.02;3.38;;;2.80;99.90;;;;;;5016398;28;20022;-38
2022/02/12 00:02:40;;;;;;;8.82;2.88;;;2.80;99.90;;;;;;5032054;28;20025;-40
2022/02/12 00:05:07;;;;;;;7.97;2.90;;;2.80;99.90;;;;;;5021022;28;20065;-39
2022/02/12 00:07:33;;;;;;;13.30;3.20;;;2.80;99.90;;;;;;5026804;28;20466;-39
2022/02/12 00:09:59;;;;;;;7.82;2.17;;;2.80;99.90;;;;;;5028869;28;20040;-40
2022/02/12 00:12:26;;;;;;;12.45;3.05;;;2.80;99.90;;;;;;5016665;28;20108;-44
2022/02/12 00:14:52;;;;;;;7.18;2.97;;;2.80;99.90;;;;;;5032131;28;20573;-41
2022/02/12 00:17:18;;;;;;;10.05;2.70;;;2.80;99.90;;;;;;5035510;28;20033;-39
2022/02/12 00:19:43;;;;;;;7.80;3.20;;;2.80;99.90;;;;;;5031469;28;20568;-39
2022/02/12 00:22:09;;;;;;;8.55;2.40;;;2.80;99.90;;;;;;5033375;28;20034;-39
2022/02/12 00:24:34;;;;;;;9.80;3.38;;;2.80;99.90;;;;;;5035018;28;20584;-40
2022/02/12 00:27:00;;;;;;;21.92;3.50;;;2.80;99.90;;;;;;5032165;28;20034;-38
2022/02/12 00:29:26;;;;;;;7.10;2.58;;;2.70;99.90;;;;;;5028792;28;20022;-40
2022/02/12 00:31:51;;;;;;;11.40;3.20;;;2.80;99.90;;;;;;5034194;28;20463;-38
2022/02/12 00:34:17;;;;;;;8.38;2.55;;;2.80;99.90;;;;;;5035138;28;20036;-40
2022/02/12 00:36:42;;;;;;;14.07;2.42;;;2.80;99.90;;;;;;5034779;28;20080;-36
2022/02/12 00:39:09;;;;;;;4.95;2.15;;;2.70;99.90;;;;;;5035635;28;20394;-40
2022/02/12 00:41:34;;;;;;;7.25;2.85;;;2.80;99.90;;;;;;5022525;28;20026;-40
2022/02/12 00:44:00;;;;;;;13.68;2.78;;;2.80;99.90;;;;;;5015608;28;20041;-37
2022/02/12 00:46:26;;;;;;;11.25;2.80;;;2.80;99.90;;;;;;5033975;28;20028;-39
2022/02/12 00:48:51;;;;;;;14.60;3.30;;;2.80;99.90;;;;;;5034626;28;20018;-48
2022/02/12 00:51:17;;;;;;;4.32;2.38;;;2.80;99.90;;;;;;5018093;28;20041;-42
2022/02/12 00:53:42;;;;;;;14.15;3.13;;;2.80;99.90;;;;;;5035386;28;20389;-48
2022/02/12 00:56:08;;;;;;;12.18;3.17;;;2.80;99.90;;;;;;5034926;28;20083;-40
2022/02/12 00:58:34;;;;;;;12.85;2.83;;;2.80;99.90;;;;;;5028209;28;20022;-40
2022/02/12 01:01:00;;;;;;;8.15;2.60;;;2.80;99.90;;;;;;5035120;28;20080;-38
2022/02/12 01:03:25;;;;;;;12.65;2.92;;;2.80;99.90;;;;;;5035088;28;20021;-38
2022/02/12 01:05:51;;;;;;;4.88;2.17;;;2.80;99.90;;;;;;5034765;28;20029;-38
2022/02/12 01:08:17;;;;;;;5.85;2.22;;;2.80;99.90;;;;;;5034924;28;20026;-38
2022/02/12 01:10:42;;;;;;;7.05;2.78;;;2.80;99.90;;;;;;5034967;28;20051;-39
2022/02/12 01:13:10;;;;;;;15.77;3.28;;;2.80;99.90;;;;;;5034681;28;20025;-39
2022/02/12 01:15:36;;;;;;;11.80;4.37;;;2.70;99.90;;;;;;5034133;28;20474;-37
2022/02/12 01:18:02;;;;;;;14.38;2.90;;;2.70;99.90;;;;;;5034833;28;20268;-43
2022/02/12 01:20:28;;;;;;;7.28;3.10;;;2.70;99.90;;;;;;5030988;28;20104;-37
2022/02/12 01:22:54;;;;;;;14.88;3.15;;;2.70;99.90;;;;;;5033664;28;20022;-39
2022/02/12 01:25:20;;;;;;;10.63;2.70;;;2.70;99.90;;;;;;5017415;28;20083;-37
2022/02/12 01:27:46;;;;;;;10.57;3.08;;;2.60;99.90;;;;;;5022187;28;20116;-38
2022/02/12 01:30:12;;;;;;;11.57;3.17;;;2.70;99.90;;;;;;5032369;28;20108;-41
2022/02/12 01:32:38;;;;;;;5.05;2.70;;;2.60;99.90;;;;;;5031454;28;20021;-39
2022/02/12 01:35:07;;;;;;;13.02;3.72;;;2.60;99.90;;;;;;5025566;28;20025;-39
2022/02/12 01:37:33;;;;;;;4.80;2.17;;;2.50;99.90;;;;;;5034393;28;20418;-37
2022/02/12 01:39:59;;;;;;;11.82;2.30;;;2.50;99.90;;;;;;5034312;28;20021;-37
2022/02/12 01:42:27;;;;;;;11.82;3.33;;;2.50;99.90;;;;;;5033087;28;20048;-37
2022/02/12 01:44:53;;;;;;;4.80;2.60;;;2.50;99.90;;;;;;5032934;28;20026;-38
2022/02/12 01:47:19;;;;;;;7.80;2.78;;;2.40;99.90;;;;;;5022261;28;20487;-39
2022/02/12 01:49:44;;;;;;;6.18;3.22;;;2.40;99.90;;;;;;5026736;28;20552;-37
2022/02/12 01:52:12;;;;;;;8.13;2.55;;;2.40;99.90;;;;;;5031102;28;20057;-41
2022/02/12 01:54:38;;;;;;;8.55;3.08;;;2.40;99.90;;;;;;5034108;28;20029;-38
2022/02/12 01:57:05;;;;;;;14.40;3.92;;;2.30;99.90;;;;;;5033984;28;20540;-38
2022/02/12 01:59:32;;;;;;;9.93;3.20;;;2.30;99.90;;;;;;5034101;28;20029;-37
2022/02/12 02:01:58;;;;;;;7.82;3.35;;;2.30;99.90;;;;;;5033668;28;20029;-38
2022/02/12 02:04:24;;;;;;;14.13;4.25;;;2.30;99.90;;;;;;5022699;28;20486;-55
2022/02/12 02:06:50;;;;;;;8.93;3.92;;;2.30;99.90;;;;;;5015080;28;20029;-38
2022/02/12 02:09:18;;;;;;;13.02;3.78;;;2.20;99.90;;;;;;5017885;28;20021;-41
2022/02/12 02:11:45;;;;;;;10.70;3.47;;;2.20;99.90;;;;;;5033221;28;20036;-38
2022/02/12 02:14:10;;;;;;;10.55;3.45;;;2.20;99.90;;;;;;5033730;28;20028;-39
2022/02/12 02:16:37;;;;;;;12.40;3.45;;;2.20;99.90;;;;;;5033699;28;20025;-38
2022/02/12 02:19:03;;;;;;;14.90;3.33;;;2.20;99.90;;;;;;5032865;28;20036;-37
2022/02/12 02:21:30;;;;;;;5.97;3.00;;;2.20;99.90;;;;;;5021292;28;20046;-38
2022/02/12 02:23:56;;;;;;;7.75;2.83;;;2.20;99.90;;;;;;5019122;28;20025;-38
2022/02/12 02:26:22;;;;;;;14.88;4.00;;;2.20;99.90;;;;;;5024798;28;20037;-38
2022/02/12 02:28:48;;;;;;;16.92;4.25;;;2.20;99.90;;;;;;5027580;28;20036;-38
2022/02/12 02:31:16;;;;;;;11.00;4.05;;;2.20;99.90;;;;;;5033418;28;20014;-39
2022/02/12 02:33:42;;;;;;;14.50;4.15;;;2.20;99.90;;;;;;5033355;28;20029;-39
2022/02/12 02:36:08;;;;;;;10.80;3.75;;;2.10;99.90;;;;;;5024072;28;20018;-46
2022/02/12 02:38:33;;;;;;;11.05;3.88;;;2.10;99.90;;;;;;5013592;28;20478;-40
2022/02/12 02:41:00;;;;;;;12.35;4.22;;;2.10;99.90;;;;;;5013752;28;20029;-38
2022/02/12 02:43:27;;;;;;;11.50;4.07;;;2.10;99.90;;;;;;5013470;28;20509;-38
2022/02/12 02:45:53;;;;;;;15.63;4.53;;;2.10;99.90;;;;;;5016971;28;20113;-40
2022/02/12 02:48:19;;;;;;;8.70;3.47;;;2.10;99.90;;;;;;5022678;28;20029;-66
2022/02/12 02:56:14;;;;;;;17.27;3.67;;;2.10;99.90;;;;;;5015149;28;20404;-39
2022/02/12 02:58:44;;;;;;;10.15;3.17;;;2.20;99.90;;;;;;5012085;28;20030;-38
2022/02/12 03:01:15;;;;;;;8.90;3.42;;;2.20;99.90;;;;;;5015936;28;20064;-38
2022/02/12 03:03:42;;;;;;;15.52;3.50;;;2.10;99.90;;;;;;5019627;28;20462;-39
2022/02/12 03:06:10;;;;;;;12.52;4.05;;;2.20;99.90;;;;;;5012916;28;20037;-53
2022/02/12 03:08:36;;;;;;;11.60;4.68;;;2.20;99.90;;;;;;5013181;28;20064;-38
2022/02/12 03:11:02;;;;;;;13.57;3.80;;;2.20;99.90;;;;;;5032829;28;20084;-39
2022/02/12 03:13:28;;;;;;;20.25;4.10;;;2.20;99.90;;;;;;5032821;28;20033;-37
2022/02/12 03:15:54;;;;;;;11.18;3.22;;;2.20;99.90;;;;;;5028736;28;20018;-38
2022/02/12 03:18:19;;;;;;;15.70;3.63;;;2.20;99.90;;;;;;5013383;28;20399;-38
2022/02/12 03:20:45;;;;;;;12.75;4.25;;;2.20;99.90;;;;;;5012743;28;20518;-38
2022/02/12 03:23:11;;;;;;;10.43;3.40;;;2.20;99.90;;;;;;5023935;28;20545;-37
2022/02/12 03:25:37;;;;;;;11.07;3.00;;;2.20;99.90;;;;;;5032709;28;20513;-37
2022/02/12 03:28:04;;;;;;;8.65;2.95;;;2.20;99.90;;;;;;5032410;28;20026;-37
2022/02/12 03:30:36;;;;;;;11.65;3.17;;;2.10;99.90;;;;;;5032849;28;20478;-37
2022/02/12 03:33:01;;;;;;;8.00;3.40;;;2.10;99.90;;;;;;5032607;28;20021;-38
2022/02/12 03:35:27;;;;;;;11.25;2.97;;;2.10;99.90;;;;;;5032741;28;20437;-37
2022/02/12 03:38:04;;;;;;;8.05;3.17;;;2.10;99.90;;;;;;5030151;28;20410;-38
2022/02/12 03:40:29;;;;;;;4.75;2.58;;;2.10;99.90;;;;;;5030679;28;20108;-38
2022/02/12 03:42:55;;;;;;;10.63;3.28;;;2.10;99.90;;;;;;5032503;28;20121;-38
2022/02/12 03:45:22;;;;;;;16.00;2.92;;;2.00;99.90;;;;;;5031823;28;20034;-38
2022/02/12 03:47:49;;;;;;;18.88;3.15;;;2.10;99.90;;;;;;5025398;28;20030;-38
2022/02/12 03:50:14;;;;;;;21.10;3.38;;;2.10;99.90;;;;;;5012944;28;20041;-36
2022/02/12 03:52:40;;;;;;;6.20;2.50;;;2.10;99.90;;;;;;5012663;28;20026;-37
2022/02/12 03:55:06;;;;;;;10.30;3.25;;;2.10;99.90;;;;;;5012747;28;20061;-39
2022/02/12 03:57:36;;;;;;;13.00;3.00;;;2.10;99.90;;;;;;5013300;28;20022;-38
2022/02/12 04:00:06;;;;;;;12.02;2.50;;;2.10;99.90;;;;;;5012867;28;20083;-38
2022/02/12 04:02:32;;;;;;;16.70;3.03;;;2.10;99.90;;;;;;5020708;28;20478;-37
2022/02/12 04:04:58;;;;;;;12.60;3.90;;;2.10;99.90;;;;;;5032303;28;20038;-39
2022/02/12 04:07:23;;;;;;;13.82;2.78;;;2.10;99.90;;;;;;5031548;28;20036;-38
2022/02/12 04:09:49;;;;;;;8.32;3.20;;;2.10;99.90;;;;;;5032567;28;20109;-39
2022/02/12 04:12:14;;;;;;;8.43;3.13;;;2.10;99.90;;;;;;5032650;28;20018;-53
2022/02/12 04:14:40;;;;;;;12.60;2.45;;;2.10;99.90;;;;;;5032896;28;20022;-45
2022/02/12 04:17:06;;;;;;;13.52;3.50;;;2.10;99.90;;;;;;5035877;28;20013;-45
2022/02/12 04:19:32;;;;;;;11.90;2.60;;;2.10;99.90;;;;;;5036508;28;20026;-40
2022/02/12 04:21:59;;;;;;;20.33;2.63;;;2.10;99.90;;;;;;5034070;28;20049;-41
2022/02/12 04:24:25;;;;;;;9.40;2.50;;;2.10;99.90;;;;;;5016416;28;20033;-40
2022/02/12 04:26:51;;;;;;;15.50;2.85;;;2.10;99.90;;;;;;5017073;28;20068;-44
2022/02/12 04:29:16;;;;;;;10.88;2.80;;;2.10;99.90;;;;;;5035934;28;20068;-49
2022/02/12 04:31:42;;;;;;;8.23;3.17;;;2.10;99.90;;;;;;5036119;28;20425;-44
2022/02/12 04:34:08;;;;;;;9.00;2.60;;;2.10;99.90;;;;;;5035993;28;20052;-39
2022/02/12 04:36:34;;;;;;;7.30;2.45;;;2.10;99.90;;;;;;5035988;28;20030;-42
2022/02/12 04:39:00;;;;;;;8.40;2.47;;;2.10;99.90;;;;;;5035364;28;20033;-39
2022/02/12 04:41:26;;;;;;;8.02;2.58;;;2.10;99.90;;;;;;5034544;28;20030;-39
2022/02/12 04:43:52;;;;;;;12.05;3.78;;;2.10;99.90;;;;;;5035779;28;20390;-42
2022/02/12 04:46:18;;;;;;;3.45;1.88;;;2.20;99.90;;;;;;5036129;28;20038;-44
2022/02/12 04:48:48;;;;;;;6.70;2.60;;;2.20;99.90;;;;;;5023772;28;20026;-45
2022/02/12 04:51:16;;;;;;;12.55;2.70;;;2.20;99.90;;;;;;5015915;28;20102;-44
2022/02/12 04:53:42;;;;;;;10.90;2.78;;;2.20;99.90;;;;;;5015882;28;20132;-48
2022/02/12 04:56:07;;;;;;;5.25;2.38;;;2.20;99.90;;;;;;5015832;28;20105;-38
2022/02/12 04:58:33;;;;;;;8.75;1.70;;;2.10;99.90;;;;;;5022495;28;20497;-39
2022/02/12 05:00:59;;;;;;;17.88;2.67;;;2.10;99.90;;;;;;5035562;28;20034;-39
2022/02/12 05:03:25;;;;;;;11.95;2.90;;;2.10;99.90;;;;;;5035319;28;20032;-39
2022/02/12 05:05:50;;;;;;;9.02;3.20;;;2.10;99.90;;;;;;5033677;28;20046;-39
2022/02/12 05:08:16;;;;;;;7.45;2.28;;;2.10;99.90;;;;;;5034017;28;20038;-76
2022/02/12 05:10:41;;;;;;;8.43;2.08;;;2.10;99.90;;;;;;5034819;28;20141;-41
2022/02/12 05:13:07;;;;;;;7.70;2.65;;;2.10;99.90;;;;;;5034852;28;20036;-37
2022/02/12 05:15:32;;;;;;;4.93;1.65;;;2.10;99.90;;;;;;5034872;28;20067;-39
2022/02/12 05:17:58;;;;;;;10.80;2.75;;;2.10;99.90;;;;;;5032801;28;20559;-38
2022/02/12 05:20:24;;;;;;;10.05;3.08;;;2.10;99.90;;;;;;5034251;28;20048;-39
2022/02/12 05:22:49;;;;;;;11.63;2.83;;;2.10;99.90;;;;;;5026621;28;20065;-37
2022/02/12 05:25:15;;;;;;;10.85;2.38;;;2.10;99.90;;;;;;5016285;28;20026;-38
2022/02/12 05:27:41;;;;;;;8.90;2.50;;;2.10;99.90;;;;;;5032601;28;20029;-37
2022/02/12 05:30:07;;;;;;;7.85;2.95;;;2.10;99.90;;;;;;5034546;28;20021;-37
2022/02/12 05:32:33;;;;;;;16.05;3.10;;;2.20;99.90;;;;;;5034643;28;20021;-37
2022/02/12 05:34:58;;;;;;;13.57;2.55;;;2.20;99.90;;;;;;5033767;28;20485;-41
2022/02/12 05:37:24;;;;;;;12.90;3.28;;;2.10;99.90;;;;;;5033674;28;20096;-38
2022/02/12 05:39:50;;;;;;;12.15;2.80;;;2.10;99.90;;;;;;5034334;28;20033;-37
2022/02/12 05:42:15;;;;;;;17.58;3.10;;;2.10;99.90;;;;;;5034376;28;20074;-38
2022/02/12 05:44:41;;;;;;;29.17;4.60;;;2.10;99.90;;;;;;5034347;28;20026;-39
2022/02/12 05:47:07;;;;;;;10.45;2.10;;;2.10;99.90;;;;;;5031779;28;20048;-37
2022/02/12 05:49:32;;;;;;;13.30;2.67;;;2.10;99.90;;;;;;5034166;28;20107;-37
2022/02/12 05:51:58;;;;;;;6.60;2.25;;;2.10;99.90;;;;;;5034339;28;20021;-38
2022/02/12 05:54:23;;;;;;;7.45;3.00;;;2.20;99.90;;;;;;5014734;28;20113;-38
2022/02/12 05:59:33;;;;;;;12.63;2.58;;;2.10;99.90;;;;;;5034547;28;20080;-38
2022/02/12 06:02:01;;;;;;;10.13;3.38;;;2.20;99.90;;;;;;5033977;28;20233;-37
2022/02/12 06:04:26;;;;;;;5.55;2.70;;;2.10;99.90;;;;;;5033996;28;20025;-39
2022/02/12 06:06:52;;;;;;;14.13;3.13;;;2.20;99.90;;;;;;5025628;28;20025;-38
2022/02/12 06:09:17;;;;;;;15.50;2.90;;;2.10;99.90;;;;;;5016840;28;20022;-50
2022/02/12 06:11:43;;;;;;;9.80;3.70;;;2.10;99.90;;;;;;5021333;28;20101;-37
2022/02/12 06:14:08;;;;;;;7.40;2.67;;;2.20;99.90;;;;;;5014173;28;20065;-40
2022/02/12 06:16:34;;;;;;;14.57;3.78;;;2.20;99.90;;;;;;5029730;28;20029;-46
2022/02/12 06:19:00;;;;;;;14.77;3.30;;;2.20;99.90;;;;;;5030985;28;20056;-53
2022/02/12 06:21:26;;;;;;;12.98;2.60;;;2.20;99.90;;;;;;5013755;28;20057;-37
2022/02/12 06:23:51;;;;;;;17.98;2.78;;;2.20;99.90;;;;;;5030650;28;20504;-39
2022/02/12 06:26:17;;;;;;;11.23;3.05;;;2.20;99.90;;;;;;5032776;28;20029;-37
2022/02/12 06:28:43;;;;;;;9.80;3.40;;;2.20;99.90;;;;;;5032808;28;20635;-37
2022/02/12 06:31:08;;;;;;;13.43;3.38;;;2.10;99.90;;;;;;5016366;28;20039;-37
2022/02/12 06:33:34;;;;;;;19.13;3.33;;;2.10;99.90;;;;;;5013614;28;20129;-38
2022/02/12 06:36:00;;;;;;;15.82;3.65;;;2.10;99.90;;;;;;5016895;28;20029;-39
2022/02/12 06:38:26;;;;;;;5.93;2.80;;;2.10;99.90;;;;;;5033631;28;20041;-39
2022/02/12 06:40:51;;;;;;;11.52;3.65;;;2.10;99.90;;;;;;5033263;28;20386;-37
2022/02/12 06:43:17;;;;;;;8.45;3.03;;;2.10;99.90;;;;;;5032901;28;20478;-39
2022/02/12 06:45:42;;;;;;;11.10;3.88;;;2.10;99.90;;;;;;5032606;28;20029;-38
2022/02/12 06:48:08;;;;;;;17.88;3.58;;;2.10;99.90;;;;;;5015291;28;20372;-36
2022/02/12 06:50:34;;;;;;;7.43;2.92;;;2.10;99.90;;;;;;5013345;28;20101;-38
2022/02/12 06:52:59;;;;;;;13.73;3.10;;;2.00;99.90;;;;;;5013251;28;20029;-43
2022/02/12 06:55:25;;;;;;;22.33;3.60;;;2.00;99.90;;;;;;5013276;28;20506;-37
2022/02/12 06:57:51;;;;;;;17.58;3.97;;;2.00;99.90;;;;;;5025790;28;20109;-38
2022/02/12 07:00:17;;;;;;;18.60;3.78;;;1.90;99.90;;;;;;5016533;28;20029;-39
2022/02/12 07:02:42;;;;;;;6.50;2.88;;;2.00;99.90;;;;;;5013188;28;20038;-55
2022/02/12 07:05:08;;;;;;;21.48;3.95;;;2.00;99.90;;;;;;5030822;28;20028;-37
2022/02/12 07:07:46;;;;;;;12.07;3.28;;;1.90;99.90;;;;;;5032102;28;20030;-40
2022/02/12 07:10:14;;;;;;;10.55;3.65;;;1.90;99.90;;;;;;5032775;28;20033;-39
2022/02/12 07:12:40;;;;;;;8.00;3.17;;;1.90;99.90;;;;;;5031136;28;20037;-40
2022/02/12 07:15:06;;;;;;;9.60;2.97;;;1.80;99.90;;;;;;5032827;28;20068;-37
2022/02/12 07:17:37;;;;;;;14.55;3.60;;;1.90;99.90;;;;;;5032389;28;20498;-38
2022/02/12 07:20:03;;;;;;;18.75;4.70;;;1.90;99.90;;;;;;5030632;28;20033;-37
2022/02/12 07:22:29;;;;;;;10.35;3.70;;;1.90;99.90;;;;;;5032236;28;20111;-38
2022/02/12 07:24:54;;;;;;;13.20;3.40;;;1.90;99.90;;;;;;5031311;28;20064;-38
2022/02/12 07:27:20;;;;;;;13.93;4.25;;;1.90;99.90;;;;;;5025624;28;20057;-42
2022/02/12 07:29:45;;;;;;;7.90;4.07;;;1.90;99.90;;;;;;5012745;28;20483;-48
2022/02/12 07:32:11;;;;;;;13.98;3.90;;;1.80;99.90;;;;;;5012802;28;20109;-42
2022/02/12 07:34:37;;;;;;;10.88;3.78;;;1.90;99.90;;;;;;5013059;28;20068;-40
2022/02/12 07:37:03;;;;;;;14.10;3.85;;;1.80;99.90;;;;;;5013225;28;20017;-42
2022/02/12 07:39:28;;;;;;;19.77;5.30;;;1.80;99.90;;;;;;5013264;28;20034;-38
2022/02/12 07:41:54;;;;;;;13.20;4.15;;;1.90;99.90;;;;;;5013157;28;20022;-41
2022/02/12 07:44:20;;;;;;;10.45;3.67;;;1.90;99.90;;;;;;5031551;28;20096;-38
2022/02/12 07:46:45;;;;;;;14.32;4.20;;;1.90;99.90;;;;;;5029384;28;20038;-39
2022/02/12 07:49:11;;;;;;;13.35;3.90;;;2.00;99.90;;;;;;5014153;28;20022;-37
2022/02/12 07:51:37;;;;;;;7.60;3.15;;;2.00;99.90;;;;;;5035044;28;20100;-52
2022/02/12 07:54:03;;;;;;;15.73;3.85;;;2.00;99.90;;;;;;5019442;28;20030;-38
2022/02/12 07:56:32;;;;;;;20.90;4.00;;;2.00;99.90;;;;;;5016831;28;20528;-42
2022/02/12 07:58:58;;;;;;;6.32;3.20;;;2.10;99.90;;;;;;5015470;28;20029;-39
2022/02/12 08:01:25;;;;;;;7.07;3.10;;;2.10;99.90;;;;;;5027780;28;20029;-39
2022/02/12 08:03:50;;;;;;;13.65;3.60;;;2.10;99.90;;;;;;5033200;28;20022;-46
2022/02/12 08:09:00;;;;;;;16.58;4.28;;;2.30;99.90;;;;;;5020880;28;20045;-38
2022/02/12 08:11:30;;;;;;;9.48;2.97;;;2.40;99.90;;;;;;5016099;28;20026;-47
2022/02/12 08:13:56;;;;;;;19.05;4.18;;;2.50;99.90;;;;;;5016608;28;20022;-76
2022/02/12 08:16:22;;;;;;;7.55;3.40;;;2.50;99.90;;;;;;5016198;28;20036;-37
2022/02/12 08:18:48;;;;;;;11.73;3.70;;;2.60;99.90;;;;;;5031684;28;20069;-37
2022/02/12 08:21:14;;;;;;;15.02;3.60;;;2.70;99.90;;;;;;5035676;28;20042;-37
2022/02/12 08:23:39;;;;;;;9.95;3.15;;;2.80;99.90;;;;;;5035562;28;20033;-38
2022/02/12 08:26:05;;;;;;;7.65;3.50;;;2.80;99.90;;;;;;5034323;28;20561;-38
2022/02/12 08:28:31;;;;;;;10.50;3.75;;;2.80;99.90;;;;;;5034175;28;20406;-37
2022/02/12 08:30:57;;;;;;;15.73;4.28;;;2.80;99.90;;;;;;5035780;28;20013;-38
2022/02/12 08:33:22;;;;;;;6.53;3.25;;;2.80;99.90;;;;;;5026120;28;20072;-37
2022/02/12 08:35:48;;;;;;;13.05;3.92;;;2.90;99.90;;;;;;5016629;28;20335;-37
2022/02/12 08:38:13;;;;;;;17.65;4.03;;;2.80;99.90;;;;;;5016618;28;20144;-37
2022/02/12 08:40:39;;;;;;;10.10;3.78;;;2.90;99.90;;;;;;5031608;28;20113;-39
2022/02/12 08:43:06;;;;;;;16.17;4.20;;;3.00;99.90;;;;;;5021287;28;20553;-46
2022/02/12 08:45:31;;;;;;;19.88;3.40;;;3.00;99.90;;;;;;5015969;28;20041;-37
2022/02/12 08:47:57;;;;;;;6.80;3.72;;;3.10;99.90;;;;;;5016241;28;20026;-38
2022/02/12 08:50:23;;;;;;;11.75;3.50;;;3.20;99.90;;;;;;5022486;28;20493;-37
2022/02/12 08:52:48;;;;;;;8.65;3.08;;;3.30;99.90;;;;;;5033459;28;20063;-39
2022/02/12 08:55:14;;;;;;;15.63;3.38;;;3.30;99.90;;;;;;5034000;28;20022;-38
2022/02/12 08:57:40;;;;;;;13.43;3.17;;;3.30;99.90;;;;;;5035097;28;20140;-37
2022/02/12 09:00:08;;;;;;;12.82;3.65;;;3.40;99.90;;;;;;5022276;28;20513;-38
2022/02/12 09:02:34;;;;;;;12.65;3.75;;;3.40;99.90;;;;;;5031406;28;20060;-38
2022/02/12 09:04:59;;;;;;;6.53;3.95;;;3.50;99.90;;;;;;5028615;28;20029;-39
2022/02/12 09:07:25;;;;;;;10.63;2.80;;;3.50;99.90;;;;;;5021552;28;20024;-43
2022/02/12 09:09:50;;;;;;;17.40;4.55;;;3.60;99.90;;;;;;5015953;28;20104;-38
2022/02/12 09:12:17;;;;;;;9.88;3.38;;;3.70;99.90;;;;;;5026486;28;20104;-39
2022/02/12 09:14:42;;;;;;;10.73;3.33;;;3.80;99.90;;;;;;5031938;28;20475;-37
2022/02/12 09:17:09;;;;;;;9.90;3.40;;;3.90;99.90;;;;;;5034614;28;20024;-41
2022/02/12 09:19:35;;;;;;;12.52;3.03;;;4.00;99.90;;;;;;5032437;28;20116;-37
2022/02/12 09:22:01;;;;;;;10.50;3.47;;;4.10;99.90;;;;;;5034311;28;20105;-36
2022/02/12 09:24:26;;;;;;;13.18;2.83;;;4.10;99.90;;;;;;5034580;28;20022;-38
2022/02/12 09:26:52;;;;;;;17.77;3.42;;;4.20;99.90;;;;;;5023267;28;20513;-37
2022/02/12 09:29:18;;;;;;;21.33;2.80;;;4.30;99.90;;;;;;5029272;28;20132;-48
2022/02/12 09:31:43;;;;;;;7.80;2.60;;;4.40;99.90;;;;;;5034287;28;20091;-37
2022/02/12 09:34:09;;;;;;;11.65;2.97;;;4.50;99.90;;;;;;5029675;28;20033;-39
2022/02/12 09:36:35;;;;;;;8.27;2.65;;;4.60;99.90;;;;;;5019740;28;20029;-37
2022/02/12 09:39:00;;;;;;;18.98;3.60;;;4.60;99.90;;;;;;5034333;28;20132;-38
2022/02/12 09:41:27;;;;;;;9.52;3.88;;;4.60;99.90;;;;;;5016009;28;20064;-39
2022/02/12 09:43:54;;;;;;;12.00;2.95;;;4.70;99.90;;;;;;5032042;28;20025;-39
2022/02/12 09:46:25;;;;;;;11.15;3.38;;;4.70;99.90;;;;;;5034174;28;20029;-37
2022/02/12 09:48:51;;;;;;;8.15;2.65;;;4.80;99.90;;;;;;5033978;28;20036;-41
2022/02/12 09:51:18;;;;;;;11.18;2.97;;;4.80;99.90;;;;;;5019994;28;20482;-38
2022/02/12 09:53:44;;;;;;;14.98;2.58;;;4.80;99.90;;;;;;5014253;28;20029;-37
2022/02/12 09:56:11;;;;;;;19.17;3.53;;;4.90;99.90;;;;;;5014201;28;20022;-39
2022/02/12 09:58:55;;;;;;;10.60;3.73;;;5.00;99.90;;;;;;5018207;28;20139;-38
2022/02/12 10:01:21;;;;;;;7.68;3.08;;;5.20;99.90;;;;;;5031706;28;20284;-38
2022/02/12 10:03:49;;;;;;;14.32;3.03;;;5.30;99.90;;;;;;5034025;28;20519;-38
2022/02/12 10:06:15;;;;;;;5.75;2.53;;;5.20;99.90;;;;;;5034094;28;20500;-38
2022/02/12 10:09:00;;;;;;;13.77;2.50;;;5.20;99.90;;;;;;5032709;28;20030;-37
2022/02/12 10:11:45;;;;;;;15.40;2.83;;;5.10;99.90;;;;;;5033455;28;20032;-38
2022/02/12 10:14:16;;;;;;;17.58;2.22;;;5.30;99.90;;;;;;5033343;28;20028;-39
2022/02/12 10:17:08;;;;;;;7.85;2.35;;;5.40;99.90;;;;;;5028287;28;20026;-40
2022/02/12 10:19:38;;;;;;;6.75;2.25;;;5.40;99.90;;;;;;5032260;28;20034;-38
2022/02/12 10:22:06;;;;;;;5.97;2.00;;;5.40;99.90;;;;;;5033663;28;20522;-39
2022/02/12 10:24:48;;;;;;;10.80;2.90;;;5.50;99.90;;;;;;5032096;28;20481;-37
2022/02/12 10:27:14;;;;;;;8.43;2.63;;;5.60;99.90;;;;;;5032807;28;20040;-38
2022/02/12 10:29:40;;;;;;;25.02;8.80;;;5.70;99.90;;;;;;5030982;28;20482;-37
2022/02/12 10:32:08;;;;;;;24.08;9.13;;;5.80;99.90;;;;;;5025845;28;20024;-37
2022/02/12 10:34:42;;;;;;;7.70;3.65;;;5.80;99.90;;;;;;5016815;28;20040;-38
2022/02/12 10:37:15;;;;;;;8.63;2.90;;;5.90;99.90;;;;;;5022051;28;20022;-38
2022/02/12 10:39:53;;;;;;;9.98;2.15;;;5.90;99.90;;;;;;5022952;28;20093;-39
2022/02/12 10:42:19;;;;;;;7.78;1.83;;;6.00;99.90;;;;;;5033059;28;20534;-37
2022/02/12 10:44:46;;;;;;;8.73;3.97;;;6.10;99.90;;;;;;5023366;28;20045;-37
2022/02/12 10:47:16;;;;;;;8.38;2.55;;;6.20;99.90;;;;;;5027906;28;20056;-37
2022/02/12 10:49:45;;;;;;;8.77;2.13;;;6.30;99.90;;;;;;5033066;28;20037;-37
2022/02/12 10:52:11;;;;;;;9.90;2.42;;;6.30;99.90;;;;;;5018540;28;20036;-38
2022/02/12 10:54:45;;;;;;;9.85;1.92;;;6.30;99.90;;;;;;5014705;28;20140;-37
2022/02/12 10:57:12;;;;;;;8.15;2.58;;;6.40;99.90;;;;;;5021778;28;20057;-38
2022/02/12 10:59:41;;;;;;;12.00;3.80;;;6.40;99.90;;;;;;5030558;28;20117;-46
2022/02/12 11:02:10;;;;;;;5.85;1.85;;;6.60;99.90;;;;;;5031410;28;20025;-39
2022/02/12 11:04:38;;;;;;;10.43;2.58;;;6.70;99.90;;;;;;5030626;28;20029;-38
2022/02/12 11:07:05;;;;;;;10.95;2.40;;;6.80;99.90;;;;;;5032518;28;20033;-39
2022/02/12 11:09:31;;;;;;;4.53;2.55;;;6.80;99.90;;;;;;5023848;28;20026;-58
2022/02/12 11:12:03;;;;;;;4.13;1.83;;;6.90;99.90;;;;;;5029880;28;20474;-38
2022/02/12 11:14:32;;;;;;;4.20;1.90;;;6.90;99.90;;;;;;5031268;28;20022;-38
2022/02/12 11:17:02;;;;;;;10.27;2.15;;;6.90;99.90;;;;;;5021181;28;20105;-37
2022/02/12 11:19:30;;;;;;;2.97;1.90;;;6.90;99.90;;;;;;5016939;28;20037;-38
2022/02/12 11:21:55;;;;;;;10.63;2.80;;;6.80;99.90;;;;;;5031349;28;20095;-40
2022/02/12 11:24:44;;;;;;;3.60;1.90;;;6.80;99.90;;;;;;5031876;28;20029;-38
2022/02/12 11:27:22;;;;;;;9.70;2.40;;;6.90;99.90;;;;;;5025014;28;20605;-39
2022/02/12 11:30:14;;;;;;;7.28;3.80;;;7.00;99.90;;;;;;5025948;28;20541;-39
2022/02/12 11:32:44;;;;;;;6.95;2.28;;;7.10;99.90;;;;;;5026216;28;20030;-39
2022/02/12 11:35:10;;;;;;;7.38;1.90;;;7.20;99.90;;;;;;5020544;28;20467;-38
2022/02/12 11:37:41;;;;;;;11.57;1.88;;;7.30;99.90;;;;;;5024624;28;20030;-46
2022/02/12 11:40:21;;;;;;;5.55;1.88;;;7.40;99.90;;;;;;5024142;28;20032;-44
2022/02/12 11:42:58;;;;;;;9.38;1.73;;;7.40;99.90;;;;;;5025578;28;20034;-37
2022/02/12 11:45:29;;;;;;;8.65;2.17;;;7.50;99.90;;;;;;5024547;28;20029;-39
2022/02/12 11:48:18;;;;;;;11.50;2.42;;;7.60;99.90;;;;;;5025452;28;20034;-39
2022/02/12 11:50:51;;;;;;;11.80;2.58;;;7.70;99.90;;;;;;5026790;28;20432;-39
2022/02/12 11:53:46;;;;;;;7.38;2.78;;;7.60;99.90;;;;;;5027254;28;20060;-38
2022/02/12 11:56:17;;;;;;;9.32;3.15;;;7.50;99.90;;;;;;5022458;28;20026;-38
2022/02/12 11:58:45;;;;;;;8.48;2.80;;;7.50;99.90;;;;;;5026017;28;20021;-37
2022/02/12 12:01:27;;;;;;;12.95;3.08;;;7.60;99.90;;;;;;5012581;28;20394;-43
2022/02/12 12:04:15;;;;;;;6.15;2.42;;;7.60;99.90;;;;;;5024911;28;20171;-37
2022/02/12 12:07:02;;;;;;;7.05;1.90;;;7.60;99.90;;;;;;5027910;28;20048;-38
2022/02/12 12:09:32;;;;;;;10.20;2.65;;;7.60;99.90;;;;;;5017366;28;20028;-38
2022/02/12 12:12:17;;;;;;;16.50;2.65;;;7.50;99.90;;;;;;5029272;28;20279;-39
2022/02/12 12:14:43;;;;;;;9.70;2.10;;;7.60;99.90;;;;;;5027488;28;20028;-38
2022/02/12 12:17:09;;;;;;;4.82;2.10;;;7.70;99.90;;;;;;5024373;28;20108;-40
2022/02/12 12:19:39;;;;;;;6.40;1.80;;;7.80;99.90;;;;;;5016998;28;20076;-39
2022/02/12 12:22:07;;;;;;;6.95;2.22;;;7.80;99.90;;;;;;5028106;28;20045;-39
2022/02/12 12:24:33;;;;;;;13.38;2.47;;;7.80;99.90;;;;;;5025790;28;20024;-37
2022/02/12 12:26:59;;;;;;;7.43;2.58;;;7.90;99.90;;;;;;5026618;28;20025;-37
2022/02/12 12:32:13;;;;;;;5.97;2.15;;;7.90;99.90;;;;;;5022072;28;20032;-39
2022/02/12 12:34:55;;;;;;;6.68;2.67;;;8.00;99.90;;;;;;5031059;28;20033;-39
2022/02/12 12:37:23;;;;;;;4.72;2.50;;;8.00;99.90;;;;;;5031094;28;20017;-39
2022/02/12 12:39:50;;;;;;;9.45;3.33;;;8.10;99.90;;;;;;5024365;28;20033;-40
2022/02/12 12:42:21;;;;;;;17.92;4.60;;;8.20;99.90;;;;;;5024724;28;20025;-39
2022/02/12 12:45:11;;;;;;;7.82;2.63;;;8.30;99.90;;;;;;5030698;28;20037;-40
2022/02/12 12:47:47;;;;;;;9.15;2.22;;;8.40;99.90;;;;;;5021493;28;20455;-38
2022/02/12 12:50:13;;;;;;;12.80;2.90;;;8.20;99.90;;;;;;5028154;28;20024;-39
2022/02/12 12:52:39;;;;;;;12.10;2.95;;;8.30;99.90;;;;;;5020856;28;20383;-42
2022/02/12 12:55:15;;;;;;;12.00;2.65;;;8.30;99.90;;;;;;5025833;28;20086;-38
2022/02/12 12:57:45;;;;;;;9.68;2.35;;;8.40;99.90;;;;;;5022904;28;20393;-37
2022/02/12 13:00:16;;;;;;;6.10;1.70;;;8.40;99.90;;;;;;5034360;28;20080;-39
2022/02/12 13:02:50;;;;;;;7.22;2.03;;;8.40;99.90;;;;;;5025027;28;20038;-39
2022/02/12 13:05:22;;;;;;;4.80;1.92;;;8.40;99.90;;;;;;5033270;28;20022;-38